Time;durP1;ratioP1;P1;durP2;ratioP2;P2;SDS_P1;SDS_P2;PMS_P1;PMS_P2;Temp;Humidity;BMP_temperature;BMP_pressure;BME280_temperature;BME280_humidity;BME280_pressure;Samples;Min_cycle;Max_cycle;Signal;HPM_P1;HPM_P2
2022/05/05 00:02:02;;;;;;;3.40;2.65;;;20.30;58.90;;;;;;5011863;28;20238;-71
2022/05/05 00:04:27;;;;;;;3.30;3.00;;;20.30;58.90;;;;;;5013192;28;20271;-71
2022/05/05 00:06:53;;;;;;;2.80;2.60;;;20.30;58.90;;;;;;5011362;28;20275;-71
2022/05/05 00:09:19;;;;;;;3.40;3.10;;;20.30;58.90;;;;;;4995087;28;20203;-71
2022/05/05 00:14:33;;;;;;;4.10;2.53;;;20.30;58.90;;;;;;5027912;28;20176;-71
2022/05/05 00:17:03;;;;;;;2.58;2.38;;;20.30;58.90;;;;;;5027710;28;20338;-71
2022/05/05 00:19:32;;;;;;;2.92;2.60;;;20.30;58.90;;;;;;5027934;28;20172;-71
2022/05/05 00:21:59;;;;;;;2.60;2.40;;;20.30;58.90;;;;;;5012477;28;20203;-70
2022/05/05 00:24:25;;;;;;;2.30;2.10;;;20.30;58.90;;;;;;5011391;28;20188;-71
2022/05/05 00:26:50;;;;;;;2.70;2.50;;;20.30;59.00;;;;;;5027639;28;20190;-71
2022/05/05 00:29:17;;;;;;;2.83;2.60;;;20.30;58.90;;;;;;4995034;28;20183;-71
2022/05/05 00:31:44;;;;;;;2.83;2.50;;;20.30;58.90;;;;;;5011175;28;20227;-71
2022/05/05 00:34:10;;;;;;;2.60;2.40;;;20.30;59.00;;;;;;5027837;28;20184;-71
2022/05/05 00:36:36;;;;;;;3.53;2.58;;;20.30;59.00;;;;;;5010985;28;20188;-71
2022/05/05 00:39:04;;;;;;;3.22;2.92;;;20.30;58.90;;;;;;5011239;28;20260;-71
2022/05/05 00:41:47;;;;;;;3.00;2.70;;;20.30;58.90;;;;;;5011139;28;20208;-71
2022/05/05 00:44:14;;;;;;;3.65;3.28;;;20.30;58.90;;;;;;5010063;28;20184;-71
2022/05/05 00:46:45;;;;;;;4.35;3.47;;;20.30;58.90;;;;;;4991595;28;20645;-71
2022/05/05 00:49:11;;;;;;;3.65;3.17;;;20.30;58.90;;;;;;4991619;28;20181;-71
2022/05/05 00:51:37;;;;;;;3.08;2.88;;;20.30;58.90;;;;;;4991406;28;20221;-71
2022/05/05 00:54:03;;;;;;;3.20;3.00;;;20.30;58.90;;;;;;4975409;28;20176;-71
2022/05/05 00:56:29;;;;;;;3.25;2.95;;;20.30;58.90;;;;;;4991405;28;20385;-71
2022/05/05 00:58:57;;;;;;;3.00;2.80;;;20.30;58.90;;;;;;4975547;28;20235;-71
2022/05/05 01:01:23;;;;;;;2.97;2.78;;;20.20;58.80;;;;;;4991330;28;20205;-71
2022/05/05 01:03:50;;;;;;;2.50;2.30;;;20.20;58.80;;;;;;4992693;28;20271;-71
2022/05/05 01:06:16;;;;;;;2.70;2.50;;;20.20;58.80;;;;;;4991318;28;20184;-71
2022/05/05 01:08:44;;;;;;;3.00;2.75;;;20.20;58.90;;;;;;4991388;28;20169;-71
2022/05/05 01:11:10;;;;;;;2.80;2.60;;;20.20;58.80;;;;;;4992398;28;20216;-70
2022/05/05 01:13:42;;;;;;;2.60;2.40;;;20.20;58.80;;;;;;4975475;28;20717;-71
2022/05/05 01:16:09;;;;;;;3.85;2.85;;;20.30;58.90;;;;;;4975062;28;20679;-71
2022/05/05 01:18:36;;;;;;;2.75;2.55;;;20.30;58.90;;;;;;4991390;28;20192;-71
2022/05/05 01:21:02;;;;;;;2.60;2.40;;;20.20;58.80;;;;;;4991646;28;20204;-71
2022/05/05 01:23:29;;;;;;;2.60;2.40;;;20.20;58.80;;;;;;4975077;28;20185;-71
2022/05/05 01:28:44;;;;;;;3.20;2.90;;;20.30;58.90;;;;;;4996095;28;20192;-71
2022/05/05 01:31:11;;;;;;;3.20;2.90;;;20.30;58.90;;;;;;4994242;28;20232;-71
2022/05/05 01:33:36;;;;;;;3.17;2.97;;;20.20;58.80;;;;;;4978582;28;20176;-71
2022/05/05 01:36:04;;;;;;;3.45;3.15;;;20.20;58.80;;;;;;4978299;28;20192;-71
2022/05/05 01:38:43;;;;;;;3.35;3.10;;;20.20;58.80;;;;;;4978761;28;20324;-71
2022/05/05 01:41:12;;;;;;;3.28;2.97;;;20.20;58.80;;;;;;4995915;28;20208;-71
2022/05/05 01:43:42;;;;;;;2.80;2.60;;;20.20;58.80;;;;;;4994633;28;20556;-71
2022/05/05 01:46:08;;;;;;;3.00;2.80;;;20.20;59.10;;;;;;4995673;28;20204;-71
2022/05/05 01:48:35;;;;;;;2.92;2.72;;;20.20;58.80;;;;;;4995700;28;20181;-71
2022/05/05 01:51:02;;;;;;;2.92;2.70;;;20.20;58.80;;;;;;4978376;28;20582;-71
2022/05/05 01:53:28;;;;;;;2.60;2.40;;;20.20;58.80;;;;;;4978458;28;20184;-71
2022/05/05 01:55:54;;;;;;;2.63;2.42;;;20.20;58.80;;;;;;4978359;28;20212;-70
2022/05/05 01:58:20;;;;;;;2.63;2.42;;;20.20;58.80;;;;;;4994509;28;20175;-71
2022/05/05 02:00:46;;;;;;;3.00;2.80;;;20.20;58.80;;;;;;4994328;28;20687;-70
2022/05/05 02:03:14;;;;;;;2.60;2.40;;;20.20;58.80;;;;;;4995391;28;20224;-71
2022/05/05 02:05:43;;;;;;;2.97;2.78;;;20.20;58.80;;;;;;4994319;28;20181;-71
2022/05/05 02:08:11;;;;;;;3.35;3.05;;;20.20;58.80;;;;;;4989634;28;20184;-71
2022/05/05 02:10:37;;;;;;;3.28;3.08;;;20.20;58.80;;;;;;5014809;28;20200;-71
2022/05/05 02:13:06;;;;;;;3.80;2.97;;;20.20;58.80;;;;;;5013691;28;20271;-71
2022/05/05 02:15:34;;;;;;;3.50;3.20;;;20.20;58.70;;;;;;5013582;28;20693;-71
2022/05/05 02:18:12;;;;;;;3.95;3.08;;;20.20;58.80;;;;;;4992168;28;20246;-71
2022/05/05 02:20:40;;;;;;;3.35;3.05;;;20.20;58.80;;;;;;5010191;28;20245;-71
2022/05/05 02:23:07;;;;;;;2.92;2.70;;;20.20;58.80;;;;;;5015039;28;20191;-71
2022/05/05 02:25:33;;;;;;;3.05;2.80;;;20.20;58.80;;;;;;4997395;28;20271;-71
2022/05/05 02:28:00;;;;;;;2.53;2.33;;;20.20;58.80;;;;;;5013457;28;20184;-70
2022/05/05 02:30:27;;;;;;;3.00;2.80;;;20.20;58.80;;;;;;5013428;28;20179;-70
2022/05/05 02:32:53;;;;;;;2.58;2.38;;;20.20;58.80;;;;;;4996943;28;20234;-71
2022/05/05 02:35:19;;;;;;;2.33;2.15;;;20.20;58.80;;;;;;5013360;28;20238;-70
2022/05/05 02:40:31;;;;;;;2.90;2.70;;;20.20;58.80;;;;;;5014222;28;20204;-71
2022/05/05 02:42:58;;;;;;;2.95;2.75;;;20.20;58.80;;;;;;4997155;28;20188;-71
2022/05/05 02:45:25;;;;;;;2.65;2.40;;;20.20;58.80;;;;;;5012932;28;20235;-71
2022/05/05 02:47:52;;;;;;;3.22;3.03;;;20.20;59.40;;;;;;4996801;28;20184;-71
2022/05/05 02:50:18;;;;;;;3.10;2.90;;;20.20;58.80;;;;;;5014058;28;20181;-71
2022/05/05 02:52:44;;;;;;;3.30;2.90;;;20.20;58.70;;;;;;4993445;28;20220;-71
2022/05/05 02:55:11;;;;;;;3.67;3.38;;;20.20;58.70;;;;;;4977137;28;20189;-71
2022/05/05 02:57:36;;;;;;;3.50;3.20;;;20.20;58.70;;;;;;4994237;28;20185;-71
2022/05/05 03:00:07;;;;;;;3.67;3.38;;;20.20;58.80;;;;;;5009649;28;20169;-71
2022/05/05 03:02:34;;;;;;;3.42;3.13;;;20.20;58.70;;;;;;5009589;28;20671;-71
2022/05/05 03:05:00;;;;;;;3.30;3.00;;;20.20;58.70;;;;;;4994306;28;20273;-71
2022/05/05 03:07:26;;;;;;;2.95;2.65;;;20.20;58.70;;;;;;4992928;28;20181;-71
2022/05/05 03:09:52;;;;;;;2.70;2.50;;;20.20;58.70;;;;;;5009390;28;20188;-71
2022/05/05 03:12:18;;;;;;;2.80;2.60;;;20.20;58.70;;;;;;5009199;28;20244;-71
2022/05/05 03:14:46;;;;;;;2.83;2.63;;;20.20;58.70;;;;;;5009529;28;20236;-71
2022/05/05 03:17:13;;;;;;;3.00;2.80;;;20.20;58.80;;;;;;4992647;28;20189;-70
2022/05/05 03:19:38;;;;;;;2.50;2.30;;;20.20;58.80;;;;;;5009286;28;20243;-71
2022/05/05 03:22:04;;;;;;;2.58;2.38;;;20.10;58.70;;;;;;5009094;28;20197;-70
2022/05/05 03:24:30;;;;;;;2.85;2.65;;;20.10;58.60;;;;;;5009344;28;20251;-71
2022/05/05 03:26:56;;;;;;;2.50;2.33;;;20.10;58.70;;;;;;5008693;28;20189;-71
2022/05/05 03:29:22;;;;;;;2.60;2.40;;;20.20;58.70;;;;;;5009059;28;20192;-71
2022/05/05 03:31:48;;;;;;;3.05;2.72;;;20.10;58.60;;;;;;5008816;28;20216;-71
2022/05/05 03:34:15;;;;;;;2.88;2.65;;;20.10;58.60;;;;;;5008868;28;20291;-71
2022/05/05 03:36:41;;;;;;;2.35;2.20;;;20.10;58.60;;;;;;4992114;28;20280;-71
2022/05/05 03:39:06;;;;;;;2.85;2.65;;;20.20;58.70;;;;;;4992638;28;20193;-71
2022/05/05 03:41:32;;;;;;;3.05;2.80;;;20.10;58.60;;;;;;5008769;28;20211;-71
2022/05/05 03:43:58;;;;;;;3.25;3.05;;;20.20;58.70;;;;;;4992484;28;20196;-71
2022/05/05 03:46:24;;;;;;;3.42;3.15;;;20.10;58.60;;;;;;5008209;28;20188;-71
2022/05/05 03:48:52;;;;;;;3.22;2.97;;;20.10;58.60;;;;;;5008455;28;20220;-70
2022/05/05 03:51:18;;;;;;;3.47;3.00;;;20.20;58.70;;;;;;5008827;28;20235;-71
2022/05/05 03:53:44;;;;;;;3.65;3.35;;;20.10;58.60;;;;;;5008674;28;20174;-71
2022/05/05 03:56:10;;;;;;;3.38;3.08;;;20.20;58.70;;;;;;4993120;28;20191;-71
2022/05/05 03:58:35;;;;;;;3.25;3.00;;;20.10;58.60;;;;;;4993413;28;20185;-71
2022/05/05 04:01:01;;;;;;;3.05;2.83;;;20.10;58.60;;;;;;5008289;28;20212;-71
2022/05/05 04:03:33;;;;;;;3.28;2.97;;;20.10;59.20;;;;;;5008690;28;20189;-70
2022/05/05 04:06:03;;;;;;;2.45;2.30;;;20.10;58.60;;;;;;5008531;28;20185;-70
2022/05/05 04:08:30;;;;;;;2.78;2.53;;;20.10;58.60;;;;;;4975910;28;20197;-71
2022/05/05 04:10:56;;;;;;;2.72;2.53;;;20.20;58.70;;;;;;5008206;28;20579;-71
2022/05/05 04:13:25;;;;;;;2.75;2.55;;;20.10;58.60;;;;;;4993239;28;20193;-70
2022/05/05 04:15:52;;;;;;;2.35;2.15;;;20.10;58.60;;;;;;5008532;28;20180;-71
2022/05/05 04:18:18;;;;;;;2.60;2.40;;;20.20;59.30;;;;;;5008045;28;20191;-71
2022/05/05 04:20:44;;;;;;;2.50;2.30;;;20.10;58.60;;;;;;5008328;28;20196;-71
2022/05/05 04:23:10;;;;;;;2.85;2.65;;;20.10;58.60;;;;;;4993318;28;20184;-71
2022/05/05 04:25:44;;;;;;;2.70;2.50;;;20.20;59.30;;;;;;5008087;28;20185;-70
2022/05/05 04:28:12;;;;;;;3.03;2.72;;;20.10;58.60;;;;;;4975367;28;20687;-71
2022/05/05 04:30:39;;;;;;;2.92;2.72;;;20.10;58.60;;;;;;5007952;28;20304;-70
2022/05/05 04:33:09;;;;;;;3.20;3.00;;;20.10;58.60;;;;;;4992082;28;20189;-70
2022/05/05 04:35:36;;;;;;;3.30;3.00;;;20.10;58.60;;;;;;4996102;28;20207;-71
2022/05/05 04:38:02;;;;;;;3.10;2.90;;;20.10;58.60;;;;;;4994558;28;20172;-71
2022/05/05 04:40:28;;;;;;;3.22;2.97;;;20.10;58.60;;;;;;5011258;28;20358;-71
2022/05/05 04:42:54;;;;;;;3.33;3.13;;;20.10;58.60;;;;;;5012463;28;20248;-71
2022/05/05 04:45:20;;;;;;;3.35;3.15;;;20.10;58.60;;;;;;5012360;28;20188;-71
2022/05/05 04:47:46;;;;;;;2.65;2.45;;;20.10;58.60;;;;;;4994534;28;20278;-71
2022/05/05 04:50:12;;;;;;;2.92;2.72;;;20.10;58.60;;;;;;5011372;28;20186;-70
2022/05/05 04:52:37;;;;;;;3.20;3.00;;;20.10;58.60;;;;;;5011360;28;20259;-71
2022/05/05 04:55:04;;;;;;;2.63;2.42;;;20.10;58.60;;;;;;5010974;28;20212;-71
2022/05/05 04:57:29;;;;;;;2.30;2.20;;;20.10;58.60;;;;;;5011193;28;20177;-71
2022/05/05 04:59:55;;;;;;;2.50;2.40;;;20.10;58.60;;;;;;5013166;28;20194;-71
2022/05/05 05:02:21;;;;;;;2.42;2.33;;;20.10;58.60;;;;;;5015986;28;20208;-71
2022/05/05 05:04:47;;;;;;;2.45;2.25;;;20.10;58.50;;;;;;5015083;28;20203;-71
2022/05/05 05:07:13;;;;;;;3.08;2.78;;;20.10;58.50;;;;;;5014489;28;20191;-71
2022/05/05 05:09:38;;;;;;;2.40;2.22;;;20.10;58.60;;;;;;5014950;28;20188;-72
2022/05/05 05:12:05;;;;;;;2.33;2.17;;;20.10;58.60;;;;;;4998284;28;20227;-71
2022/05/05 05:14:31;;;;;;;2.85;2.65;;;20.10;58.60;;;;;;4998014;28;20180;-71
2022/05/05 05:16:56;;;;;;;2.65;2.45;;;20.10;58.50;;;;;;4997515;28;20188;-71
2022/05/05 05:19:22;;;;;;;2.50;2.30;;;20.10;58.50;;;;;;5013811;28;20180;-71
2022/05/05 05:21:48;;;;;;;2.50;2.38;;;20.10;58.50;;;;;;5003121;28;20597;-71
2022/05/05 05:24:14;;;;;;;3.10;2.80;;;20.20;58.60;;;;;;5004785;28;20180;-71
2022/05/05 05:26:40;;;;;;;2.90;2.70;;;20.20;58.50;;;;;;4996647;28;20191;-71
2022/05/05 05:29:06;;;;;;;2.78;2.58;;;20.20;58.50;;;;;;5001813;28;20234;-71
2022/05/05 05:31:32;;;;;;;3.10;2.60;;;20.20;58.50;;;;;;4988588;28;20209;-71
2022/05/05 05:33:59;;;;;;;3.03;2.83;;;20.20;58.50;;;;;;5003375;28;20215;-72
2022/05/05 05:36:25;;;;;;;3.33;3.08;;;20.20;58.50;;;;;;4997505;28;20185;-71
2022/05/05 05:38:51;;;;;;;3.05;2.80;;;20.20;58.50;;;;;;4978510;28;20280;-71
2022/05/05 05:41:17;;;;;;;3.35;3.10;;;20.20;58.50;;;;;;4997346;28;20215;-71
2022/05/05 05:43:42;;;;;;;3.28;3.08;;;20.20;58.50;;;;;;4994559;28;20181;-71
2022/05/05 05:46:09;;;;;;;2.90;2.70;;;20.20;58.50;;;;;;4994317;28;20220;-71
2022/05/05 05:48:37;;;;;;;3.15;2.95;;;20.20;58.50;;;;;;4994574;28;20232;-72
2022/05/05 05:51:03;;;;;;;2.70;2.50;;;20.20;58.50;;;;;;4995456;28;20224;-71
2022/05/05 05:53:29;;;;;;;2.75;2.55;;;20.20;58.50;;;;;;4997602;28;20187;-71
2022/05/05 05:55:54;;;;;;;2.50;2.30;;;20.20;58.50;;;;;;4997561;28;20180;-71
2022/05/05 05:58:20;;;;;;;3.05;2.30;;;20.20;58.60;;;;;;5014090;28;20180;-71
2022/05/05 06:00:46;;;;;;;2.80;2.60;;;20.20;58.60;;;;;;4997894;28;20215;-71
2022/05/05 06:05:55;;;;;;;2.92;2.72;;;20.20;58.60;;;;;;5013577;28;20188;-71
2022/05/05 06:08:21;;;;;;;2.80;2.60;;;20.20;58.60;;;;;;5012844;28;20206;-71
2022/05/05 06:10:47;;;;;;;2.50;2.30;;;20.20;58.60;;;;;;5012591;28;20208;-71
2022/05/05 06:13:13;;;;;;;2.60;2.40;;;20.20;58.60;;;;;;5032194;28;20185;-71
2022/05/05 06:15:39;;;;;;;2.67;2.47;;;20.20;58.60;;;;;;5016887;28;20638;-71
2022/05/05 06:18:05;;;;;;;3.35;3.15;;;20.20;58.60;;;;;;5033287;28;20190;-71
2022/05/05 06:20:32;;;;;;;2.92;2.72;;;20.20;58.70;;;;;;5016545;28;20211;-71
2022/05/05 06:22:59;;;;;;;3.30;2.97;;;20.20;58.60;;;;;;5016969;28;20187;-71
2022/05/05 06:25:25;;;;;;;3.88;3.58;;;20.20;58.60;;;;;;5033115;28;20225;-71
2022/05/05 06:27:51;;;;;;;3.80;3.50;;;20.20;58.70;;;;;;5033080;28;20176;-71
2022/05/05 06:30:17;;;;;;;4.47;3.67;;;20.20;58.70;;;;;;5025858;28;20184;-71
2022/05/05 06:32:45;;;;;;;3.63;3.33;;;20.20;58.70;;;;;;5014383;28;20215;-71
2022/05/05 06:35:12;;;;;;;4.63;4.22;;;20.20;58.70;;;;;;4997225;28;20187;-71
2022/05/05 06:37:38;;;;;;;3.95;3.63;;;20.20;58.70;;;;;;4996707;28;20243;-71
2022/05/05 06:40:06;;;;;;;3.75;3.45;;;20.20;58.70;;;;;;5001817;28;20191;-71
2022/05/05 06:42:32;;;;;;;3.10;2.85;;;20.20;58.70;;;;;;5033116;28;20207;-71
2022/05/05 06:44:59;;;;;;;3.22;2.92;;;20.20;58.70;;;;;;5016664;28;20183;-71
2022/05/05 06:47:25;;;;;;;3.08;2.88;;;20.20;58.80;;;;;;5032854;28;20183;-71
2022/05/05 06:49:52;;;;;;;3.03;2.83;;;20.20;58.80;;;;;;5032299;28;20207;-71
2022/05/05 06:52:17;;;;;;;3.40;3.10;;;20.20;58.80;;;;;;5032314;28;20215;-73
2022/05/05 06:54:43;;;;;;;2.85;2.65;;;20.20;58.80;;;;;;5028127;28;20184;-71
2022/05/05 06:57:09;;;;;;;2.83;2.63;;;20.20;58.80;;;;;;5012821;28;20176;-71
2022/05/05 06:59:35;;;;;;;3.28;3.08;;;20.20;58.80;;;;;;4983352;28;20193;-71
2022/05/05 07:02:02;;;;;;;3.00;2.70;;;20.20;58.80;;;;;;4994520;28;20215;-71
2022/05/05 07:07:19;;;;;;;3.03;2.83;;;20.20;58.80;;;;;;4994129;28;20184;-71
2022/05/05 07:12:32;;;;;;;4.28;3.97;;;20.20;58.80;;;;;;5032090;28;20219;-71
2022/05/05 07:14:59;;;;;;;5.30;4.30;;;20.20;58.80;;;;;;5022659;28;20255;-71
2022/05/05 07:17:26;;;;;;;4.00;3.55;;;20.20;58.80;;;;;;4992680;28;20192;-71
2022/05/05 07:19:53;;;;;;;3.40;3.17;;;20.20;58.80;;;;;;4999680;28;20184;-71
2022/05/05 07:22:20;;;;;;;2.90;2.70;;;20.20;58.80;;;;;;5032666;28;20211;-71
2022/05/05 07:24:46;;;;;;;3.20;3.00;;;20.10;58.80;;;;;;5015908;28;20191;-71
2022/05/05 07:27:12;;;;;;;2.75;2.55;;;20.10;58.70;;;;;;5031924;28;20647;-71
2022/05/05 07:29:39;;;;;;;2.90;2.70;;;20.20;58.90;;;;;;5013852;28;20651;-71
2022/05/05 07:32:05;;;;;;;2.78;2.58;;;20.10;58.80;;;;;;5012331;28;20216;-71
2022/05/05 07:34:34;;;;;;;3.25;2.95;;;20.10;58.80;;;;;;5007656;28;20188;-71
2022/05/05 07:37:03;;;;;;;2.97;2.78;;;20.20;58.90;;;;;;4992281;28;20188;-71
2022/05/05 07:39:29;;;;;;;2.70;2.50;;;20.20;58.90;;;;;;4976886;28;20195;-71
2022/05/05 07:41:55;;;;;;;3.35;3.05;;;20.10;58.80;;;;;;5012064;28;20208;-71
2022/05/05 07:44:21;;;;;;;3.28;2.97;;;20.10;58.80;;;;;;4995537;28;20188;-71
2022/05/05 07:46:47;;;;;;;3.30;3.00;;;20.10;58.80;;;;;;5011783;28;20246;-71
2022/05/05 07:49:13;;;;;;;3.50;3.20;;;20.10;58.90;;;;;;4995642;28;20192;-71
2022/05/05 07:51:40;;;;;;;3.80;3.50;;;20.20;58.90;;;;;;5030779;28;20242;-71
2022/05/05 07:56:51;;;;;;;4.10;3.80;;;20.10;58.80;;;;;;5031356;28;20175;-71
2022/05/05 07:59:19;;;;;;;3.50;3.20;;;20.10;58.80;;;;;;5031448;28;20180;-71
2022/05/05 08:01:45;;;;;;;3.65;3.35;;;20.10;58.80;;;;;;5013575;28;20279;-71
2022/05/05 08:04:10;;;;;;;3.53;3.33;;;20.10;58.80;;;;;;5011800;28;20180;-71
2022/05/05 08:06:36;;;;;;;3.40;3.15;;;20.10;58.80;;;;;;5012778;28;20176;-71
2022/05/05 08:09:02;;;;;;;3.05;2.85;;;20.10;58.80;;;;;;5011872;28;20199;-72
2022/05/05 08:11:28;;;;;;;2.85;2.60;;;20.10;58.80;;;;;;5028935;28;20744;-71
2022/05/05 08:13:54;;;;;;;2.92;2.72;;;20.20;59.00;;;;;;5031476;28;20191;-71
2022/05/05 08:16:21;;;;;;;3.22;3.03;;;20.10;58.80;;;;;;5014655;28;20183;-70
2022/05/05 08:18:47;;;;;;;3.53;2.85;;;20.20;58.90;;;;;;5015198;28;20232;-71
2022/05/05 08:21:13;;;;;;;3.05;2.85;;;20.20;58.90;;;;;;5014669;28;20585;-72
2022/05/05 08:23:39;;;;;;;2.90;2.70;;;20.20;58.90;;;;;;5031364;28;20184;-71
2022/05/05 08:28:50;;;;;;;3.30;3.00;;;20.10;58.80;;;;;;5032274;28;20546;-71
2022/05/05 08:31:17;;;;;;;3.38;3.13;;;20.10;58.80;;;;;;5015719;28;20784;-71
2022/05/05 08:33:44;;;;;;;3.75;3.45;;;20.20;58.90;;;;;;5014514;28;20274;-71
2022/05/05 08:36:10;;;;;;;3.88;3.58;;;20.20;58.90;;;;;;5018007;28;20194;-71
2022/05/05 08:38:36;;;;;;;3.10;2.88;;;20.20;58.90;;;;;;5017699;28;20195;-71
2022/05/05 08:41:03;;;;;;;4.10;3.80;;;20.20;58.90;;;;;;4997826;28;20211;-71
2022/05/05 08:43:29;;;;;;;4.13;3.63;;;20.20;58.90;;;;;;5014582;28;20239;-71
2022/05/05 08:45:58;;;;;;;3.90;3.60;;;20.20;58.90;;;;;;4998140;28;20192;-71
2022/05/05 08:48:26;;;;;;;4.10;3.70;;;20.20;58.90;;;;;;5014349;28;20189;-71
2022/05/05 08:51:00;;;;;;;3.55;3.25;;;20.20;58.90;;;;;;5011281;28;20294;-71
2022/05/05 08:53:35;;;;;;;2.95;2.75;;;20.20;58.90;;;;;;5017777;28;20172;-71
2022/05/05 08:56:03;;;;;;;3.22;2.63;;;20.20;59.00;;;;;;5017670;28;20237;-71
2022/05/05 08:58:31;;;;;;;3.08;2.88;;;20.20;58.90;;;;;;5017644;28;20183;-71
2022/05/05 09:00:57;;;;;;;3.22;2.92;;;20.20;58.90;;;;;;5030798;28;20210;-71
2022/05/05 09:03:24;;;;;;;2.88;2.60;;;20.30;59.00;;;;;;5020759;28;20279;-71
2022/05/05 09:05:52;;;;;;;3.53;2.88;;;20.20;58.90;;;;;;5020765;28;20179;-71
2022/05/05 09:08:32;;;;;;;3.33;2.83;;;20.20;58.90;;;;;;5037209;28;20190;-71
2022/05/05 09:11:05;;;;;;;3.63;3.40;;;20.20;58.90;;;;;;5036996;28;20690;-71
2022/05/05 09:13:37;;;;;;;3.60;3.30;;;20.20;58.90;;;;;;5037363;28;20176;-71
2022/05/05 09:16:05;;;;;;;4.00;3.70;;;20.20;59.00;;;;;;5037165;28;20215;-72
2022/05/05 09:18:33;;;;;;;4.10;3.70;;;20.20;58.90;;;;;;5020625;28;20639;-72
2022/05/05 09:21:03;;;;;;;4.38;4.07;;;20.20;58.90;;;;;;5024552;28;20291;-72
2022/05/05 09:26:30;;;;;;;3.25;3.05;;;20.20;59.00;;;;;;5017255;28;20219;-71
2022/05/05 09:28:57;;;;;;;3.40;3.10;;;20.20;58.90;;;;;;5017426;28;20238;-72
2022/05/05 09:31:23;;;;;;;3.08;2.88;;;20.30;59.00;;;;;;5032552;28;20219;-72
2022/05/05 09:33:50;;;;;;;3.00;2.70;;;20.20;58.90;;;;;;5037119;28;20171;-72
2022/05/05 09:36:28;;;;;;;3.78;3.47;;;20.30;59.00;;;;;;5020852;28;20235;-72
2022/05/05 09:39:14;;;;;;;4.68;4.28;;;20.30;59.00;;;;;;5020477;28;20193;-72
2022/05/05 09:41:45;;;;;;;6.70;6.00;;;20.30;59.00;;;;;;4999334;28;20212;-72
2022/05/05 09:44:21;;;;;;;8.88;7.40;;;20.30;59.00;;;;;;5007957;28;20701;-72
2022/05/05 09:46:48;;;;;;;10.60;9.32;;;20.30;59.00;;;;;;5013642;28;20168;-72
2022/05/05 09:49:17;;;;;;;41.42;30.77;;;20.30;59.00;;;;;;5014118;28;20202;-72
2022/05/05 09:51:46;;;;;;;36.65;27.35;;;20.30;59.20;;;;;;5033472;28;20213;-72
2022/05/05 09:59:50;;;;;;;37.50;26.33;;;20.30;59.20;;;;;;5027103;28;20195;-73
2022/05/05 10:05:16;;;;;;;45.80;33.33;;;20.40;59.20;;;;;;5007299;28;20202;-73
2022/05/05 10:07:45;;;;;;;45.63;31.85;;;20.40;59.20;;;;;;4996061;28;20189;-72
2022/05/05 10:10:16;;;;;;;42.17;32.75;;;20.40;59.20;;;;;;5005731;28;20183;-72
2022/05/05 10:12:43;;;;;;;47.03;35.20;;;20.40;59.30;;;;;;5022139;28;20228;-73
2022/05/05 10:15:12;;;;;;;45.15;35.08;;;20.40;59.30;;;;;;4980403;28;20181;-72
2022/05/05 10:17:39;;;;;;;48.20;37.75;;;20.40;59.40;;;;;;4982974;28;20185;-72
2022/05/05 10:20:09;;;;;;;53.70;39.75;;;20.40;59.50;;;;;;5008231;28;20739;-71
2022/05/05 10:23:16;;;;;;;55.60;41.50;;;20.40;59.50;;;;;;5000292;28;20575;-72
2022/05/05 10:25:42;;;;;;;61.72;46.30;;;20.40;59.40;;;;;;4997785;28;20277;-71
2022/05/05 10:28:38;;;;;;;61.20;47.33;;;20.40;59.40;;;;;;4993447;28;20231;-72
2022/05/05 10:31:10;;;;;;;66.57;47.67;;;20.40;59.50;;;;;;5009425;28;20220;-72
2022/05/05 10:34:06;;;;;;;63.38;46.53;;;20.40;59.80;;;;;;5006624;28;20176;-73
2022/05/05 10:36:34;;;;;;;67.28;50.55;;;20.40;59.60;;;;;;5001071;28;20194;-70
2022/05/05 10:39:22;;;;;;;68.70;51.60;;;20.40;59.60;;;;;;5002841;28;20196;-72
2022/05/05 10:41:51;;;;;;;70.30;53.60;;;20.40;59.70;;;;;;4999885;28;20222;-71
2022/05/05 10:44:16;;;;;;;74.03;54.65;;;20.40;59.50;;;;;;5010026;28;20184;-72
2022/05/05 10:47:02;;;;;;;74.78;56.45;;;20.40;59.60;;;;;;4993686;28;20181;-69
2022/05/05 10:49:34;;;;;;;76.10;56.65;;;20.40;59.60;;;;;;4979525;28;20241;-72
2022/05/05 10:52:12;;;;;;;73.95;57.15;;;20.40;59.60;;;;;;4997188;28;20250;-72
2022/05/05 10:54:48;;;;;;;78.88;58.05;;;20.40;59.60;;;;;;5009051;28;20191;-71
2022/05/05 10:57:25;;;;;;;72.72;56.17;;;20.40;59.50;;;;;;5009207;28;20172;-70
2022/05/05 11:00:22;;;;;;;78.47;59.10;;;20.40;59.60;;;;;;4986437;28;20183;-73
2022/05/05 11:02:58;;;;;;;79.18;58.75;;;20.40;59.60;;;;;;4996632;28;20206;-71
2022/05/05 11:05:28;;;;;;;81.20;60.65;;;20.40;59.70;;;;;;5012734;28;20191;-72
2022/05/05 11:08:19;;;;;;;76.97;59.50;;;20.40;59.60;;;;;;5012381;28;20172;-72
2022/05/05 11:13:48;;;;;;;82.35;60.90;;;20.40;59.80;;;;;;4993121;28;20184;-72
2022/05/05 11:22:18;;;;;;;87.68;67.55;;;20.40;59.70;;;;;;4992932;28;20216;-72
2022/05/05 11:24:49;;;;;;;84.80;66.13;;;20.50;59.90;;;;;;4992945;28;20188;-72
2022/05/05 11:27:24;;;;;;;84.75;65.22;;;20.40;59.70;;;;;;4993947;28;20188;-72
2022/05/05 11:29:56;;;;;;;81.30;63.92;;;20.40;59.80;;;;;;4979729;28;20211;-73
2022/05/05 11:32:32;;;;;;;72.45;57.15;;;20.40;59.70;;;;;;5013396;28;20242;-72
2022/05/05 11:35:00;;;;;;;81.35;64.10;;;20.40;59.80;;;;;;4995725;28;20334;-71
2022/05/05 11:37:28;;;;;;;80.60;59.58;;;20.50;59.90;;;;;;5013014;28;20187;-72
2022/05/05 11:39:54;;;;;;;84.72;65.18;;;20.50;59.90;;;;;;4998837;28;20198;-72
2022/05/05 11:42:19;;;;;;;87.28;64.93;;;20.50;59.80;;;;;;5031753;28;20211;-72
2022/05/05 11:44:47;;;;;;;92.40;70.68;;;20.50;60.00;;;;;;5015234;28;20215;-72
2022/05/05 11:47:18;;;;;;;92.35;68.95;;;20.50;60.40;;;;;;5032744;28;20321;-72
2022/05/05 11:49:52;;;;;;;88.65;68.03;;;20.50;60.20;;;;;;5014469;28;20250;-72
2022/05/05 11:52:21;;;;;;;89.35;67.90;;;20.50;60.10;;;;;;5032060;28;20316;-73
2022/05/05 11:54:56;;;;;;;91.43;72.38;;;20.50;60.00;;;;;;5031044;28;20189;-73
2022/05/05 11:57:38;;;;;;;88.22;69.95;;;20.50;60.40;;;;;;5030801;28;20194;-72
2022/05/05 12:02:57;;;;;;;89.47;67.80;;;20.50;59.80;;;;;;5030875;28;20609;-73
2022/05/05 12:05:24;;;;;;;88.18;68.28;;;20.50;60.30;;;;;;5030916;28;20281;-72
2022/05/05 12:07:52;;;;;;;83.25;66.95;;;20.50;60.10;;;;;;5013633;28;20188;-72
2022/05/05 12:10:21;;;;;;;84.47;66.95;;;20.50;60.00;;;;;;5023272;28;20183;-72
2022/05/05 12:12:50;;;;;;;85.63;68.28;;;20.50;59.90;;;;;;5011070;28;20223;-74
2022/05/05 12:15:18;;;;;;;89.57;68.05;;;20.50;60.30;;;;;;5011195;28;20190;-72
2022/05/05 12:17:54;;;;;;;88.05;69.15;;;20.50;60.40;;;;;;5011830;28;20184;-73
2022/05/05 12:20:21;;;;;;;86.88;70.07;;;20.50;60.10;;;;;;5010453;28;20203;-72
2022/05/05 12:23:05;;;;;;;88.88;69.32;;;20.50;60.00;;;;;;5010669;28;20207;-72
2022/05/05 12:25:31;;;;;;;88.13;68.18;;;20.50;60.10;;;;;;5011200;28;20192;-72
2022/05/05 12:27:59;;;;;;;91.07;73.28;;;20.50;60.20;;;;;;4994238;28;20213;-72
2022/05/05 12:30:42;;;;;;;91.10;71.95;;;20.50;60.30;;;;;;4990868;28;20193;-72
2022/05/05 12:33:11;;;;;;;89.90;70.35;;;20.50;60.10;;;;;;4992169;28;20228;-72
2022/05/05 12:35:40;;;;;;;83.18;65.55;;;20.50;60.20;;;;;;5008106;28;20227;-73
2022/05/05 12:38:09;;;;;;;88.18;70.75;;;20.50;60.10;;;;;;4993159;28;20206;-72
2022/05/05 12:40:37;;;;;;;82.97;66.22;;;20.50;60.20;;;;;;5000816;28;20274;-71
2022/05/05 12:43:08;;;;;;;81.63;65.47;;;20.60;60.20;;;;;;5011161;28;20195;-72
2022/05/05 12:45:37;;;;;;;84.32;68.95;;;20.50;60.10;;;;;;4995259;28;20196;-72
2022/05/05 12:48:06;;;;;;;85.80;70.13;;;20.50;60.30;;;;;;5006783;28;20192;-71
2022/05/05 12:50:41;;;;;;;88.65;69.22;;;20.50;60.60;;;;;;5019182;28;20199;-71
2022/05/05 13:01:49;;;;;;;87.75;68.65;;;20.60;60.40;;;;;;5010240;28;20216;-72
2022/05/05 13:04:18;;;;;;;88.30;71.03;;;20.60;60.50;;;;;;4983164;28;20267;-71
2022/05/05 13:06:47;;;;;;;96.15;76.75;;;20.50;60.70;;;;;;4991655;28;20199;-72
2022/05/05 13:09:14;;;;;;;89.60;73.68;;;20.60;60.20;;;;;;4975444;28;20280;-72
2022/05/05 13:11:58;;;;;;;86.95;71.10;;;20.60;60.20;;;;;;5009148;28;20220;-72
2022/05/05 13:14:24;;;;;;;89.70;69.80;;;20.50;60.50;;;;;;5010844;28;20176;-72
2022/05/05 13:16:50;;;;;;;92.03;71.25;;;20.50;60.30;;;;;;5011004;28;20184;-69
2022/05/05 13:19:17;;;;;;;86.75;71.07;;;20.50;60.70;;;;;;4994554;28;20181;-73
2022/05/05 13:21:44;;;;;;;83.43;68.68;;;20.50;60.60;;;;;;5033783;28;20290;-72
2022/05/05 13:24:11;;;;;;;84.60;68.88;;;20.60;60.80;;;;;;5034326;28;20218;-72
2022/05/05 13:26:39;;;;;;;85.72;68.53;;;20.60;60.80;;;;;;5034252;28;20233;-72
2022/05/05 13:29:05;;;;;;;80.70;68.68;;;20.50;60.70;;;;;;5034037;28;20194;-72
2022/05/05 13:31:30;;;;;;;81.88;65.90;;;20.50;60.50;;;;;;5017226;28;20223;-70
2022/05/05 13:33:56;;;;;;;83.85;67.97;;;20.60;60.90;;;;;;5034504;28;20187;-72
2022/05/05 13:36:23;;;;;;;82.68;66.72;;;20.50;60.90;;;;;;5034004;28;20176;-72
2022/05/05 13:38:49;;;;;;;75.05;62.42;;;20.60;60.90;;;;;;5033650;28;20317;-71
2022/05/05 13:41:15;;;;;;;75.40;63.47;;;20.60;61.10;;;;;;5017242;28;20242;-71